sensor_id;sensor_type;location;lat;lon;timestamp;P1;durP1;ratioP1;P2;durP2;ratioP2
3712;SDS011;1872;51.406;6.856;2023-03-20T00:00:36;22.30;;;13.97;;
3712;SDS011;1872;51.406;6.856;2023-03-20T00:03:05;20.73;;;13.90;;
3712;SDS011;1872;51.406;6.856;2023-03-20T00:05:31;21.07;;;14.17;;
3712;SDS011;1872;51.406;6.856;2023-03-20T00:07:57;21.53;;;13.50;;
3712;SDS011;1872;51.406;6.856;2023-03-20T00:10:31;19.17;;;13.40;;
3712;SDS011;1872;51.406;6.856;2023-03-20T00:13:00;19.47;;;12.97;;
3712;SDS011;1872;51.406;6.856;2023-03-20T00:15:34;20.53;;;14.27;;
3712;SDS011;1872;51.406;6.856;2023-03-20T00:18:02;24.20;;;14.50;;
3712;SDS011;1872;51.406;6.856;2023-03-20T00:20:36;18.53;;;12.70;;
3712;SDS011;1872;51.406;6.856;2023-03-20T00:23:01;18.27;;;13.00;;
3712;SDS011;1872;51.406;6.856;2023-03-20T00:25:28;20.70;;;12.80;;
3712;SDS011;1872;51.406;6.856;2023-03-20T00:27:54;20.03;;;14.00;;
3712;SDS011;1872;51.406;6.856;2023-03-20T00:32:51;14.30;;;10.30;;
3712;SDS011;1872;51.406;6.856;2023-03-20T00:35:18;18.47;;;12.07;;
3712;SDS011;1872;51.406;6.856;2023-03-20T00:37:48;14.70;;;9.50;;
3712;SDS011;1872;51.406;6.856;2023-03-20T00:40:15;14.80;;;9.90;;
3712;SDS011;1872;51.406;6.856;2023-03-20T00:42:41;14.07;;;9.37;;
3712;SDS011;1872;51.406;6.856;2023-03-20T00:45:12;14.20;;;9.33;;
3712;SDS011;1872;51.406;6.856;2023-03-20T00:47:42;13.20;;;8.43;;
3712;SDS011;1872;51.406;6.856;2023-03-20T00:50:17;11.40;;;8.10;;
3712;SDS011;1872;51.406;6.856;2023-03-20T00:52:45;10.67;;;8.10;;
3712;SDS011;1872;51.406;6.856;2023-03-20T00:55:12;11.40;;;7.77;;
3712;SDS011;1872;51.406;6.856;2023-03-20T00:57:47;11.30;;;7.83;;
3712;SDS011;1872;51.406;6.856;2023-03-20T01:00:19;11.63;;;8.20;;
3712;SDS011;1872;51.406;6.856;2023-03-20T01:02:51;11.67;;;8.40;;
3712;SDS011;1872;51.406;6.856;2023-03-20T01:05:19;11.53;;;8.63;;
3712;SDS011;1872;51.406;6.856;2023-03-20T01:07:45;11.00;;;8.47;;
3712;SDS011;1872;51.406;6.856;2023-03-20T01:10:11;10.53;;;8.30;;
3712;SDS011;1872;51.406;6.856;2023-03-20T01:12:38;11.20;;;8.23;;
3712;SDS011;1872;51.406;6.856;2023-03-20T01:15:14;12.07;;;8.57;;
3712;SDS011;1872;51.406;6.856;2023-03-20T01:17:40;10.73;;;7.97;;
3712;SDS011;1872;51.406;6.856;2023-03-20T01:20:08;13.30;;;8.73;;
3712;SDS011;1872;51.406;6.856;2023-03-20T01:22:41;12.47;;;8.47;;
3712;SDS011;1872;51.406;6.856;2023-03-20T01:25:07;11.90;;;7.47;;
3712;SDS011;1872;51.406;6.856;2023-03-20T01:27:34;12.17;;;7.50;;
3712;SDS011;1872;51.406;6.856;2023-03-20T01:30:00;14.40;;;8.83;;
3712;SDS011;1872;51.406;6.856;2023-03-20T01:32:25;11.83;;;7.77;;
3712;SDS011;1872;51.406;6.856;2023-03-20T01:34:51;12.90;;;8.20;;
3712;SDS011;1872;51.406;6.856;2023-03-20T01:37:25;9.90;;;7.07;;
3712;SDS011;1872;51.406;6.856;2023-03-20T01:39:52;10.73;;;8.00;;
3712;SDS011;1872;51.406;6.856;2023-03-20T01:42:19;9.87;;;7.03;;
3712;SDS011;1872;51.406;6.856;2023-03-20T01:44:45;10.37;;;7.50;;
3712;SDS011;1872;51.406;6.856;2023-03-20T01:47:16;12.03;;;7.43;;
3712;SDS011;1872;51.406;6.856;2023-03-20T01:52:49;9.97;;;7.47;;
3712;SDS011;1872;51.406;6.856;2023-03-20T01:55:19;11.40;;;7.37;;
3712;SDS011;1872;51.406;6.856;2023-03-20T01:57:48;10.90;;;6.60;;
3712;SDS011;1872;51.406;6.856;2023-03-20T02:00:17;11.10;;;7.57;;
3712;SDS011;1872;51.406;6.856;2023-03-20T02:02:44;9.70;;;7.40;;
3712;SDS011;1872;51.406;6.856;2023-03-20T02:05:11;11.47;;;8.03;;
3712;SDS011;1872;51.406;6.856;2023-03-20T02:07:39;12.73;;;8.10;;
3712;SDS011;1872;51.406;6.856;2023-03-20T02:10:14;10.30;;;7.60;;
3712;SDS011;1872;51.406;6.856;2023-03-20T02:12:40;13.63;;;8.30;;
3712;SDS011;1872;51.406;6.856;2023-03-20T02:15:07;11.77;;;7.17;;
3712;SDS011;1872;51.406;6.856;2023-03-20T02:17:33;12.23;;;8.60;;
3712;SDS011;1872;51.406;6.856;2023-03-20T02:33:54;11.93;;;8.00;;
3712;SDS011;1872;51.406;6.856;2023-03-20T02:39:45;10.80;;;7.47;;
3712;SDS011;1872;51.406;6.856;2023-03-20T02:42:36;13.43;;;7.57;;
3712;SDS011;1872;51.406;6.856;2023-03-20T02:51:04;9.93;;;6.90;;
3712;SDS011;1872;51.406;6.856;2023-03-20T02:53:51;9.33;;;6.43;;
3712;SDS011;1872;51.406;6.856;2023-03-20T03:01:45;11.23;;;7.23;;
3712;SDS011;1872;51.406;6.856;2023-03-20T03:04:23;9.37;;;6.83;;
3712;SDS011;1872;51.406;6.856;2023-03-20T03:06:51;10.47;;;6.53;;
3712;SDS011;1872;51.406;6.856;2023-03-20T03:09:33;11.63;;;7.10;;
3712;SDS011;1872;51.406;6.856;2023-03-20T03:12:07;12.90;;;7.70;;
3712;SDS011;1872;51.406;6.856;2023-03-20T03:14:49;11.30;;;7.10;;
3712;SDS011;1872;51.406;6.856;2023-03-20T03:17:19;9.90;;;6.73;;
3712;SDS011;1872;51.406;6.856;2023-03-20T03:19:48;13.53;;;8.27;;
3712;SDS011;1872;51.406;6.856;2023-03-20T03:22:17;16.77;;;8.50;;
3712;SDS011;1872;51.406;6.856;2023-03-20T03:24:44;14.00;;;9.47;;
3712;SDS011;1872;51.406;6.856;2023-03-20T03:29:44;12.60;;;8.70;;
3712;SDS011;1872;51.406;6.856;2023-03-20T03:32:20;13.23;;;7.77;;
3712;SDS011;1872;51.406;6.856;2023-03-20T03:34:51;13.97;;;9.63;;
3712;SDS011;1872;51.406;6.856;2023-03-20T03:42:43;15.40;;;8.30;;
3712;SDS011;1872;51.406;6.856;2023-03-20T03:45:22;14.37;;;8.40;;
3712;SDS011;1872;51.406;6.856;2023-03-20T03:47:55;16.17;;;9.50;;
3712;SDS011;1872;51.406;6.856;2023-03-20T03:50:31;14.80;;;9.50;;
3712;SDS011;1872;51.406;6.856;2023-03-20T03:53:05;15.73;;;8.97;;
3712;SDS011;1872;51.406;6.856;2023-03-20T03:55:38;14.53;;;9.20;;
3712;SDS011;1872;51.406;6.856;2023-03-20T03:58:51;16.60;;;10.10;;
3712;SDS011;1872;51.406;6.856;2023-03-20T04:01:06;17.30;;;9.83;;
3712;SDS011;1872;51.406;6.856;2023-03-20T04:03:37;16.57;;;9.80;;
3712;SDS011;1872;51.406;6.856;2023-03-20T04:06:05;16.50;;;9.77;;
3712;SDS011;1872;51.406;6.856;2023-03-20T04:08:34;14.33;;;9.40;;
3712;SDS011;1872;51.406;6.856;2023-03-20T04:11:00;14.73;;;10.20;;
3712;SDS011;1872;51.406;6.856;2023-03-20T04:13:26;16.10;;;9.70;;
3712;SDS011;1872;51.406;6.856;2023-03-20T04:15:51;17.60;;;10.17;;
3712;SDS011;1872;51.406;6.856;2023-03-20T04:18:17;15.73;;;9.97;;
3712;SDS011;1872;51.406;6.856;2023-03-20T04:20:44;14.93;;;10.37;;
3712;SDS011;1872;51.406;6.856;2023-03-20T04:23:11;16.97;;;10.40;;
3712;SDS011;1872;51.406;6.856;2023-03-20T04:25:38;19.20;;;11.57;;
3712;SDS011;1872;51.406;6.856;2023-03-20T04:28:03;19.87;;;11.70;;
3712;SDS011;1872;51.406;6.856;2023-03-20T04:30:29;16.60;;;10.00;;
3712;SDS011;1872;51.406;6.856;2023-03-20T04:32:55;17.87;;;11.03;;
3712;SDS011;1872;51.406;6.856;2023-03-20T04:35:21;15.40;;;10.17;;
3712;SDS011;1872;51.406;6.856;2023-03-20T04:37:47;20.17;;;10.40;;
3712;SDS011;1872;51.406;6.856;2023-03-20T04:40:12;18.90;;;11.23;;
3712;SDS011;1872;51.406;6.856;2023-03-20T04:42:38;18.43;;;10.93;;
3712;SDS011;1872;51.406;6.856;2023-03-20T04:45:04;16.10;;;9.87;;
3712;SDS011;1872;51.406;6.856;2023-03-20T04:47:31;19.30;;;11.83;;
3712;SDS011;1872;51.406;6.856;2023-03-20T04:49:56;19.43;;;12.13;;
3712;SDS011;1872;51.406;6.856;2023-03-20T04:52:22;19.20;;;12.27;;
3712;SDS011;1872;51.406;6.856;2023-03-20T04:54:48;18.07;;;11.80;;
3712;SDS011;1872;51.406;6.856;2023-03-20T04:57:14;17.83;;;10.60;;
3712;SDS011;1872;51.406;6.856;2023-03-20T04:59:40;17.17;;;10.97;;
3712;SDS011;1872;51.406;6.856;2023-03-20T05:02:06;21.47;;;10.90;;
3712;SDS011;1872;51.406;6.856;2023-03-20T05:04:32;15.57;;;10.70;;
3712;SDS011;1872;51.406;6.856;2023-03-20T05:06:57;17.73;;;12.20;;
3712;SDS011;1872;51.406;6.856;2023-03-20T05:09:23;15.80;;;9.57;;
3712;SDS011;1872;51.406;6.856;2023-03-20T05:11:50;17.20;;;11.23;;
3712;SDS011;1872;51.406;6.856;2023-03-20T05:14:15;19.10;;;11.23;;
3712;SDS011;1872;51.406;6.856;2023-03-20T05:16:41;13.70;;;9.03;;
3712;SDS011;1872;51.406;6.856;2023-03-20T05:19:07;19.07;;;12.00;;
3712;SDS011;1872;51.406;6.856;2023-03-20T05:21:33;16.80;;;9.70;;
3712;SDS011;1872;51.406;6.856;2023-03-20T05:23:59;16.70;;;11.00;;
3712;SDS011;1872;51.406;6.856;2023-03-20T05:26:26;16.53;;;10.20;;
3712;SDS011;1872;51.406;6.856;2023-03-20T05:28:51;17.43;;;11.30;;
3712;SDS011;1872;51.406;6.856;2023-03-20T05:31:17;14.40;;;10.13;;
3712;SDS011;1872;51.406;6.856;2023-03-20T05:33:43;17.43;;;10.63;;
3712;SDS011;1872;51.406;6.856;2023-03-20T05:36:09;13.97;;;10.00;;
3712;SDS011;1872;51.406;6.856;2023-03-20T05:38:35;20.77;;;11.37;;
3712;SDS011;1872;51.406;6.856;2023-03-20T05:41:01;15.07;;;9.57;;
3712;SDS011;1872;51.406;6.856;2023-03-20T05:43:27;15.30;;;8.80;;
3712;SDS011;1872;51.406;6.856;2023-03-20T05:45:53;15.70;;;9.90;;
3712;SDS011;1872;51.406;6.856;2023-03-20T05:48:22;14.33;;;9.93;;
3712;SDS011;1872;51.406;6.856;2023-03-20T05:50:48;17.37;;;10.40;;
3712;SDS011;1872;51.406;6.856;2023-03-20T05:53:14;15.50;;;10.60;;
3712;SDS011;1872;51.406;6.856;2023-03-20T05:55:40;16.13;;;9.80;;
3712;SDS011;1872;51.406;6.856;2023-03-20T05:58:08;15.27;;;8.80;;
3712;SDS011;1872;51.406;6.856;2023-03-20T06:00:34;14.10;;;8.80;;
3712;SDS011;1872;51.406;6.856;2023-03-20T06:03:00;16.73;;;9.90;;
3712;SDS011;1872;51.406;6.856;2023-03-20T06:05:25;15.07;;;9.43;;
3712;SDS011;1872;51.406;6.856;2023-03-20T06:07:51;16.67;;;10.37;;
3712;SDS011;1872;51.406;6.856;2023-03-20T06:10:17;14.50;;;8.97;;
3712;SDS011;1872;51.406;6.856;2023-03-20T06:12:44;13.10;;;9.50;;
3712;SDS011;1872;51.406;6.856;2023-03-20T06:15:10;13.23;;;8.83;;
3712;SDS011;1872;51.406;6.856;2023-03-20T06:17:36;16.10;;;9.33;;
3712;SDS011;1872;51.406;6.856;2023-03-20T06:20:02;12.10;;;8.80;;
3712;SDS011;1872;51.406;6.856;2023-03-20T06:22:29;17.07;;;9.40;;
3712;SDS011;1872;51.406;6.856;2023-03-20T06:24:55;15.70;;;9.90;;
3712;SDS011;1872;51.406;6.856;2023-03-20T06:27:21;14.20;;;8.93;;
3712;SDS011;1872;51.406;6.856;2023-03-20T06:29:47;15.87;;;9.67;;
3712;SDS011;1872;51.406;6.856;2023-03-20T06:32:12;14.17;;;8.90;;
3712;SDS011;1872;51.406;6.856;2023-03-20T06:34:38;13.00;;;8.67;;
3712;SDS011;1872;51.406;6.856;2023-03-20T06:37:05;14.53;;;8.73;;
3712;SDS011;1872;51.406;6.856;2023-03-20T06:39:31;12.60;;;8.20;;
3712;SDS011;1872;51.406;6.856;2023-03-20T06:41:57;13.97;;;9.23;;
3712;SDS011;1872;51.406;6.856;2023-03-20T06:44:22;13.27;;;9.27;;
3712;SDS011;1872;51.406;6.856;2023-03-20T06:46:48;17.53;;;9.60;;
3712;SDS011;1872;51.406;6.856;2023-03-20T06:49:14;15.47;;;9.83;;
3712;SDS011;1872;51.406;6.856;2023-03-20T06:51:41;13.83;;;8.27;;
3712;SDS011;1872;51.406;6.856;2023-03-20T06:54:06;14.17;;;8.37;;
3712;SDS011;1872;51.406;6.856;2023-03-20T06:56:32;14.23;;;8.93;;
3712;SDS011;1872;51.406;6.856;2023-03-20T06:58:57;16.03;;;8.83;;
3712;SDS011;1872;51.406;6.856;2023-03-20T07:01:23;12.70;;;8.07;;
3712;SDS011;1872;51.406;6.856;2023-03-20T07:03:49;11.73;;;8.47;;
3712;SDS011;1872;51.406;6.856;2023-03-20T07:06:15;18.20;;;8.97;;
3712;SDS011;1872;51.406;6.856;2023-03-20T07:08:42;12.73;;;8.83;;
3712;SDS011;1872;51.406;6.856;2023-03-20T07:11:10;12.43;;;8.17;;
3712;SDS011;1872;51.406;6.856;2023-03-20T07:13:36;15.60;;;8.73;;
3712;SDS011;1872;51.406;6.856;2023-03-20T07:16:02;16.70;;;8.60;;
3712;SDS011;1872;51.406;6.856;2023-03-20T07:18:28;11.27;;;8.27;;
3712;SDS011;1872;51.406;6.856;2023-03-20T07:20:57;13.27;;;7.70;;
3712;SDS011;1872;51.406;6.856;2023-03-20T07:23:26;12.60;;;8.40;;
3712;SDS011;1872;51.406;6.856;2023-03-20T07:25:52;12.77;;;8.20;;
3712;SDS011;1872;51.406;6.856;2023-03-20T07:28:18;16.40;;;9.80;;
3712;SDS011;1872;51.406;6.856;2023-03-20T07:30:43;17.93;;;9.00;;
3712;SDS011;1872;51.406;6.856;2023-03-20T07:33:09;13.60;;;9.07;;
3712;SDS011;1872;51.406;6.856;2023-03-20T07:35:35;12.43;;;9.60;;
3712;SDS011;1872;51.406;6.856;2023-03-20T07:38:01;14.50;;;11.43;;
3712;SDS011;1872;51.406;6.856;2023-03-20T07:40:27;14.40;;;8.33;;
3712;SDS011;1872;51.406;6.856;2023-03-20T07:42:52;16.00;;;8.83;;
3712;SDS011;1872;51.406;6.856;2023-03-20T07:45:18;14.00;;;8.00;;
3712;SDS011;1872;51.406;6.856;2023-03-20T07:47:44;12.83;;;7.87;;
3712;SDS011;1872;51.406;6.856;2023-03-20T07:50:10;12.87;;;8.43;;
3712;SDS011;1872;51.406;6.856;2023-03-20T07:52:36;14.63;;;8.53;;
3712;SDS011;1872;51.406;6.856;2023-03-20T07:55:01;15.73;;;9.07;;
3712;SDS011;1872;51.406;6.856;2023-03-20T07:57:27;14.73;;;8.40;;
3712;SDS011;1872;51.406;6.856;2023-03-20T07:59:53;15.87;;;9.07;;
3712;SDS011;1872;51.406;6.856;2023-03-20T08:02:19;16.20;;;10.13;;
3712;SDS011;1872;51.406;6.856;2023-03-20T08:04:45;15.73;;;9.17;;
3712;SDS011;1872;51.406;6.856;2023-03-20T08:07:11;15.70;;;10.07;;
3712;SDS011;1872;51.406;6.856;2023-03-20T08:09:36;15.90;;;9.80;;
3712;SDS011;1872;51.406;6.856;2023-03-20T08:12:03;17.30;;;9.57;;
3712;SDS011;1872;51.406;6.856;2023-03-20T08:14:29;13.10;;;8.60;;
3712;SDS011;1872;51.406;6.856;2023-03-20T08:16:55;15.20;;;9.30;;
3712;SDS011;1872;51.406;6.856;2023-03-20T08:19:20;14.30;;;9.40;;
3712;SDS011;1872;51.406;6.856;2023-03-20T08:21:46;19.40;;;9.67;;
3712;SDS011;1872;51.406;6.856;2023-03-20T08:24:14;13.80;;;8.73;;
3712;SDS011;1872;51.406;6.856;2023-03-20T08:26:39;14.07;;;9.20;;
3712;SDS011;1872;51.406;6.856;2023-03-20T08:29:05;13.53;;;7.70;;
3712;SDS011;1872;51.406;6.856;2023-03-20T08:31:31;12.47;;;8.17;;
3712;SDS011;1872;51.406;6.856;2023-03-20T08:33:57;17.00;;;9.87;;
3712;SDS011;1872;51.406;6.856;2023-03-20T08:36:22;13.20;;;8.60;;
3712;SDS011;1872;51.406;6.856;2023-03-20T08:38:48;14.70;;;8.17;;
3712;SDS011;1872;51.406;6.856;2023-03-20T08:41:14;12.17;;;8.37;;
3712;SDS011;1872;51.406;6.856;2023-03-20T08:43:40;10.83;;;8.00;;
3712;SDS011;1872;51.406;6.856;2023-03-20T08:46:07;12.13;;;8.07;;
3712;SDS011;1872;51.406;6.856;2023-03-20T08:48:32;13.67;;;8.37;;
3712;SDS011;1872;51.406;6.856;2023-03-20T08:50:58;13.23;;;7.53;;
3712;SDS011;1872;51.406;6.856;2023-03-20T08:53:24;11.37;;;7.60;;
3712;SDS011;1872;51.406;6.856;2023-03-20T08:55:52;15.00;;;9.83;;
3712;SDS011;1872;51.406;6.856;2023-03-20T08:58:18;9.47;;;7.10;;
3712;SDS011;1872;51.406;6.856;2023-03-20T09:00:45;9.07;;;6.27;;
3712;SDS011;1872;51.406;6.856;2023-03-20T09:03:11;11.00;;;7.30;;
3712;SDS011;1872;51.406;6.856;2023-03-20T09:05:45;10.73;;;7.00;;
3712;SDS011;1872;51.406;6.856;2023-03-20T09:08:12;11.30;;;7.40;;
3712;SDS011;1872;51.406;6.856;2023-03-20T09:10:38;11.70;;;6.73;;
3712;SDS011;1872;51.406;6.856;2023-03-20T09:13:05;12.77;;;8.10;;
3712;SDS011;1872;51.406;6.856;2023-03-20T09:15:31;9.80;;;7.03;;
3712;SDS011;1872;51.406;6.856;2023-03-20T09:17:57;9.90;;;5.90;;
3712;SDS011;1872;51.406;6.856;2023-03-20T09:20:23;9.43;;;6.37;;
3712;SDS011;1872;51.406;6.856;2023-03-20T09:22:49;7.00;;;5.47;;
3712;SDS011;1872;51.406;6.856;2023-03-20T09:25:15;11.13;;;6.07;;
3712;SDS011;1872;51.406;6.856;2023-03-20T09:27:41;9.00;;;5.00;;
3712;SDS011;1872;51.406;6.856;2023-03-20T09:30:07;11.60;;;5.43;;
3712;SDS011;1872;51.406;6.856;2023-03-20T09:32:34;6.97;;;4.93;;
3712;SDS011;1872;51.406;6.856;2023-03-20T09:35:01;5.20;;;4.07;;
3712;SDS011;1872;51.406;6.856;2023-03-20T09:37:27;4.17;;;3.87;;
3712;SDS011;1872;51.406;6.856;2023-03-20T09:39:53;5.00;;;4.10;;
3712;SDS011;1872;51.406;6.856;2023-03-20T09:50:37;7.30;;;3.30;;
3712;SDS011;1872;51.406;6.856;2023-03-20T09:56:03;4.80;;;3.80;;
3712;SDS011;1872;51.406;6.856;2023-03-20T09:58:30;3.33;;;3.03;;
3712;SDS011;1872;51.406;6.856;2023-03-20T10:01:02;5.00;;;2.90;;
3712;SDS011;1872;51.406;6.856;2023-03-20T10:06:13;5.30;;;3.20;;
3712;SDS011;1872;51.406;6.856;2023-03-20T10:08:40;5.47;;;3.20;;
3712;SDS011;1872;51.406;6.856;2023-03-20T10:21:47;4.53;;;3.47;;
3712;SDS011;1872;51.406;6.856;2023-03-20T10:26:57;3.70;;;3.30;;
3712;SDS011;1872;51.406;6.856;2023-03-20T10:34:44;3.73;;;3.43;;
3712;SDS011;1872;51.406;6.856;2023-03-20T10:42:44;6.50;;;3.60;;
3712;SDS011;1872;51.406;6.856;2023-03-20T10:45:26;4.63;;;4.00;;
3712;SDS011;1872;51.406;6.856;2023-03-20T10:47:58;8.27;;;4.37;;
3712;SDS011;1872;51.406;6.856;2023-03-20T10:50:32;5.00;;;4.17;;
3712;SDS011;1872;51.406;6.856;2023-03-20T10:53:03;5.13;;;3.93;;
3712;SDS011;1872;51.406;6.856;2023-03-20T10:55:35;8.23;;;4.00;;
3712;SDS011;1872;51.406;6.856;2023-03-20T10:58:26;5.53;;;3.60;;
3712;SDS011;1872;51.406;6.856;2023-03-20T11:00:55;7.30;;;3.80;;
3712;SDS011;1872;51.406;6.856;2023-03-20T11:03:24;5.43;;;4.60;;
3712;SDS011;1872;51.406;6.856;2023-03-20T11:06:15;7.10;;;5.00;;
3712;SDS011;1872;51.406;6.856;2023-03-20T11:08:50;7.40;;;4.10;;
3712;SDS011;1872;51.406;6.856;2023-03-20T11:11:24;7.63;;;4.23;;
3712;SDS011;1872;51.406;6.856;2023-03-20T11:13:52;7.40;;;4.33;;
3712;SDS011;1872;51.406;6.856;2023-03-20T11:16:23;5.87;;;4.00;;
3712;SDS011;1872;51.406;6.856;2023-03-20T11:19:03;5.47;;;3.77;;
3712;SDS011;1872;51.406;6.856;2023-03-20T11:21:31;4.47;;;3.67;;
3712;SDS011;1872;51.406;6.856;2023-03-20T11:23:57;4.57;;;3.50;;
3712;SDS011;1872;51.406;6.856;2023-03-20T11:26:35;6.67;;;3.50;;
3712;SDS011;1872;51.406;6.856;2023-03-20T11:29:04;3.57;;;3.23;;
3712;SDS011;1872;51.406;6.856;2023-03-20T11:31:33;4.10;;;3.60;;
3712;SDS011;1872;51.406;6.856;2023-03-20T11:36:39;4.10;;;3.70;;
3712;SDS011;1872;51.406;6.856;2023-03-20T11:39:24;7.03;;;4.37;;
3712;SDS011;1872;51.406;6.856;2023-03-20T11:41:52;4.67;;;3.30;;
3712;SDS011;1872;51.406;6.856;2023-03-20T11:47:04;5.60;;;3.73;;
3712;SDS011;1872;51.406;6.856;2023-03-20T11:49:50;3.93;;;2.93;;
3712;SDS011;1872;51.406;6.856;2023-03-20T11:52:28;5.80;;;4.27;;
3712;SDS011;1872;51.406;6.856;2023-03-20T11:55:00;8.27;;;3.67;;
3712;SDS011;1872;51.406;6.856;2023-03-20T12:00:04;4.00;;;3.40;;
3712;SDS011;1872;51.406;6.856;2023-03-20T12:02:48;3.80;;;3.33;;
3712;SDS011;1872;51.406;6.856;2023-03-20T12:08:22;5.80;;;3.80;;
3712;SDS011;1872;51.406;6.856;2023-03-20T12:10:58;5.30;;;4.33;;
3712;SDS011;1872;51.406;6.856;2023-03-20T12:13:31;7.93;;;3.97;;
3712;SDS011;1872;51.406;6.856;2023-03-20T12:16:03;4.07;;;3.27;;
3712;SDS011;1872;51.406;6.856;2023-03-20T12:18:37;4.40;;;4.00;;
3712;SDS011;1872;51.406;6.856;2023-03-20T12:24:10;6.27;;;3.60;;
3712;SDS011;1872;51.406;6.856;2023-03-20T12:27:06;3.30;;;2.83;;
3712;SDS011;1872;51.406;6.856;2023-03-20T12:29:39;4.40;;;2.87;;
3712;SDS011;1872;51.406;6.856;2023-03-20T12:32:09;2.80;;;2.40;;
3712;SDS011;1872;51.406;6.856;2023-03-20T12:34:41;5.33;;;3.37;;
3712;SDS011;1872;51.406;6.856;2023-03-20T12:37:10;3.60;;;3.00;;
3712;SDS011;1872;51.406;6.856;2023-03-20T12:39:40;6.77;;;3.57;;
3712;SDS011;1872;51.406;6.856;2023-03-20T12:42:17;4.70;;;2.97;;
3712;SDS011;1872;51.406;6.856;2023-03-20T12:47:35;4.87;;;3.50;;
3712;SDS011;1872;51.406;6.856;2023-03-20T13:00:39;4.37;;;3.60;;
3712;SDS011;1872;51.406;6.856;2023-03-20T13:14:03;7.50;;;4.27;;
3712;SDS011;1872;51.406;6.856;2023-03-20T13:30:36;4.43;;;3.67;;
3712;SDS011;1872;51.406;6.856;2023-03-20T13:36:02;6.90;;;4.43;;
3712;SDS011;1872;51.406;6.856;2023-03-20T13:38:50;5.03;;;4.50;;
3712;SDS011;1872;51.406;6.856;2023-03-20T13:41:27;5.40;;;4.87;;
3712;SDS011;1872;51.406;6.856;2023-03-20T13:43:58;6.00;;;4.33;;
3712;SDS011;1872;51.406;6.856;2023-03-20T13:46:32;6.90;;;5.03;;
3712;SDS011;1872;51.406;6.856;2023-03-20T13:49:06;6.97;;;4.68;;
3712;SDS011;1872;51.406;6.856;2023-03-20T13:51:59;6.53;;;4.10;;
3712;SDS011;1872;51.406;6.856;2023-03-20T14:00:36;5.83;;;4.13;;
3712;SDS011;1872;51.406;6.856;2023-03-20T14:05:35;6.30;;;4.87;;
3712;SDS011;1872;51.406;6.856;2023-03-20T14:08:51;5.43;;;4.50;;
3712;SDS011;1872;51.406;6.856;2023-03-20T14:11:05;5.20;;;3.97;;
3712;SDS011;1872;51.406;6.856;2023-03-20T14:13:34;8.70;;;3.97;;
3712;SDS011;1872;51.406;6.856;2023-03-20T14:16:05;6.83;;;3.90;;
3712;SDS011;1872;51.406;6.856;2023-03-20T14:18:34;7.80;;;4.70;;
3712;SDS011;1872;51.406;6.856;2023-03-20T14:21:04;4.87;;;3.60;;
3712;SDS011;1872;51.406;6.856;2023-03-20T14:23:38;9.60;;;5.00;;
3712;SDS011;1872;51.406;6.856;2023-03-20T14:31:28;7.53;;;4.97;;
3712;SDS011;1872;51.406;6.856;2023-03-20T14:40:05;7.07;;;3.80;;
3712;SDS011;1872;51.406;6.856;2023-03-20T14:42:54;5.20;;;3.90;;
3712;SDS011;1872;51.406;6.856;2023-03-20T14:48:16;8.47;;;4.57;;
3712;SDS011;1872;51.406;6.856;2023-03-20T14:53:31;4.97;;;3.90;;
3712;SDS011;1872;51.406;6.856;2023-03-20T15:03:47;6.23;;;4.50;;
3712;SDS011;1872;51.406;6.856;2023-03-20T15:06:26;4.60;;;4.10;;
3712;SDS011;1872;51.406;6.856;2023-03-20T15:08:57;5.23;;;4.57;;
3712;SDS011;1872;51.406;6.856;2023-03-20T15:11:25;7.37;;;5.10;;
3712;SDS011;1872;51.406;6.856;2023-03-20T15:13:51;7.03;;;4.60;;
3712;SDS011;1872;51.406;6.856;2023-03-20T15:16:24;7.00;;;4.73;;
3712;SDS011;1872;51.406;6.856;2023-03-20T15:18:55;12.03;;;6.40;;
3712;SDS011;1872;51.406;6.856;2023-03-20T15:21:28;9.33;;;5.63;;
3712;SDS011;1872;51.406;6.856;2023-03-20T15:23:58;8.10;;;4.67;;
3712;SDS011;1872;51.406;6.856;2023-03-20T15:26:24;7.80;;;5.77;;
3712;SDS011;1872;51.406;6.856;2023-03-20T15:29:12;7.23;;;5.50;;
3712;SDS011;1872;51.406;6.856;2023-03-20T15:31:40;10.63;;;5.80;;
3712;SDS011;1872;51.406;6.856;2023-03-20T15:34:07;6.00;;;4.70;;
3712;SDS011;1872;51.406;6.856;2023-03-20T15:36:38;8.97;;;5.50;;
3712;SDS011;1872;51.406;6.856;2023-03-20T15:39:06;8.83;;;5.97;;
3712;SDS011;1872;51.406;6.856;2023-03-20T15:41:55;7.03;;;5.60;;
3712;SDS011;1872;51.406;6.856;2023-03-20T15:44:26;7.53;;;5.57;;
3712;SDS011;1872;51.406;6.856;2023-03-20T15:47:17;6.57;;;5.67;;
3712;SDS011;1872;51.406;6.856;2023-03-20T15:49:49;9.37;;;5.83;;
3712;SDS011;1872;51.406;6.856;2023-03-20T15:55:10;7.63;;;5.43;;
3712;SDS011;1872;51.406;6.856;2023-03-20T15:57:40;7.43;;;6.20;;
3712;SDS011;1872;51.406;6.856;2023-03-20T16:00:19;13.63;;;5.63;;
3712;SDS011;1872;51.406;6.856;2023-03-20T16:03:06;6.87;;;6.17;;
3712;SDS011;1872;51.406;6.856;2023-03-20T16:05:35;8.23;;;6.53;;
3712;SDS011;1872;51.406;6.856;2023-03-20T16:08:17;11.13;;;7.03;;
3712;SDS011;1872;51.406;6.856;2023-03-20T16:10:53;9.80;;;6.57;;
3712;SDS011;1872;51.406;6.856;2023-03-20T16:13:25;7.97;;;6.70;;
3712;SDS011;1872;51.406;6.856;2023-03-20T16:15:52;10.33;;;7.17;;
3712;SDS011;1872;51.406;6.856;2023-03-20T16:18:19;8.43;;;6.27;;
3712;SDS011;1872;51.406;6.856;2023-03-20T16:20:50;8.37;;;6.40;;
3712;SDS011;1872;51.406;6.856;2023-03-20T16:23:25;9.40;;;5.90;;
3712;SDS011;1872;51.406;6.856;2023-03-20T16:25:58;8.63;;;6.13;;
3712;SDS011;1872;51.406;6.856;2023-03-20T16:28:26;13.53;;;7.73;;
3712;SDS011;1872;51.406;6.856;2023-03-20T16:30:52;10.10;;;6.93;;
3712;SDS011;1872;51.406;6.856;2023-03-20T16:33:28;8.17;;;6.50;;
3712;SDS011;1872;51.406;6.856;2023-03-20T16:35:54;8.57;;;7.17;;
3712;SDS011;1872;51.406;6.856;2023-03-20T16:38:27;10.30;;;7.17;;
3712;SDS011;1872;51.406;6.856;2023-03-20T16:41:43;11.23;;;9.77;;
3712;SDS011;1872;51.406;6.856;2023-03-20T16:43:49;8.10;;;7.00;;
3712;SDS011;1872;51.406;6.856;2023-03-20T16:46:16;8.50;;;7.03;;
3712;SDS011;1872;51.406;6.856;2023-03-20T16:49:01;10.37;;;6.60;;
3712;SDS011;1872;51.406;6.856;2023-03-20T16:52:12;8.40;;;5.47;;
3712;SDS011;1872;51.406;6.856;2023-03-20T16:54:39;8.20;;;6.47;;
3712;SDS011;1872;51.406;6.856;2023-03-20T16:57:12;6.70;;;5.70;;
3712;SDS011;1872;51.406;6.856;2023-03-20T16:59:43;12.30;;;6.57;;
3712;SDS011;1872;51.406;6.856;2023-03-20T17:02:31;5.87;;;4.93;;
3712;SDS011;1872;51.406;6.856;2023-03-20T17:05:03;5.43;;;4.77;;
3712;SDS011;1872;51.406;6.856;2023-03-20T17:07:31;7.77;;;5.30;;
3712;SDS011;1872;51.406;6.856;2023-03-20T17:09:58;6.57;;;5.13;;
3712;SDS011;1872;51.406;6.856;2023-03-20T17:12:33;6.03;;;5.37;;
3712;SDS011;1872;51.406;6.856;2023-03-20T17:15:02;7.33;;;5.50;;
3712;SDS011;1872;51.406;6.856;2023-03-20T17:17:28;7.30;;;5.30;;
3712;SDS011;1872;51.406;6.856;2023-03-20T17:19:56;7.80;;;5.47;;
3712;SDS011;1872;51.406;6.856;2023-03-20T17:22:24;8.17;;;5.53;;
3712;SDS011;1872;51.406;6.856;2023-03-20T17:24:54;5.50;;;4.63;;
3712;SDS011;1872;51.406;6.856;2023-03-20T17:27:20;8.47;;;5.30;;
3712;SDS011;1872;51.406;6.856;2023-03-20T17:29:46;10.50;;;5.97;;
3712;SDS011;1872;51.406;6.856;2023-03-20T17:32:16;8.87;;;5.90;;
3712;SDS011;1872;51.406;6.856;2023-03-20T17:34:44;7.10;;;5.60;;
3712;SDS011;1872;51.406;6.856;2023-03-20T17:37:10;8.00;;;5.30;;
3712;SDS011;1872;51.406;6.856;2023-03-20T17:39:38;8.80;;;6.20;;
3712;SDS011;1872;51.406;6.856;2023-03-20T17:42:17;6.10;;;5.03;;
3712;SDS011;1872;51.406;6.856;2023-03-20T17:44:44;7.80;;;6.13;;
3712;SDS011;1872;51.406;6.856;2023-03-20T17:47:13;7.77;;;5.23;;
3712;SDS011;1872;51.406;6.856;2023-03-20T17:49:41;8.53;;;4.90;;
3712;SDS011;1872;51.406;6.856;2023-03-20T17:52:09;7.57;;;4.70;;
3712;SDS011;1872;51.406;6.856;2023-03-20T17:54:43;5.70;;;5.10;;
3712;SDS011;1872;51.406;6.856;2023-03-20T18:00:21;5.00;;;4.50;;
3712;SDS011;1872;51.406;6.856;2023-03-20T18:02:48;6.10;;;4.47;;
3712;SDS011;1872;51.406;6.856;2023-03-20T18:05:14;8.87;;;4.80;;
3712;SDS011;1872;51.406;6.856;2023-03-20T18:07:39;10.53;;;4.67;;
3712;SDS011;1872;51.406;6.856;2023-03-20T18:10:05;6.50;;;5.60;;
3712;SDS011;1872;51.406;6.856;2023-03-20T18:12:43;7.33;;;6.47;;
3712;SDS011;1872;51.406;6.856;2023-03-20T18:15:09;9.43;;;6.47;;